Time;durP1;ratioP1;P1;durP2;ratioP2;P2;SDS_P1;SDS_P2;PMS_P1;PMS_P2;Temp;Humidity;BMP_temperature;BMP_pressure;BME280_temperature;BME280_humidity;BME280_pressure;Samples;Min_cycle;Max_cycle;Signal;HPM_P1;HPM_P2
2022/05/31 00:01:08;;;;;;;12.57;6.22;;;;;;;11.28;66.17;101135.56;3559243;40;20049;-61
2022/05/31 00:03:34;;;;;;;8.80;5.82;;;;;;;11.25;66.61;101134.91;3560247;40;20411;-62
2022/05/31 00:06:00;;;;;;;10.85;5.82;;;;;;;11.09;66.04;101113.41;3560045;40;20075;-61
2022/05/31 00:08:26;;;;;;;12.13;6.75;;;;;;;11.04;65.99;101110.16;3559708;40;20076;-62
2022/05/31 00:10:51;;;;;;;10.35;6.40;;;;;;;11.12;66.82;101124.00;3559810;40;20076;-62
2022/05/31 00:13:17;;;;;;;11.95;6.30;;;;;;;11.04;66.48;101121.78;3560489;40;20392;-62
2022/05/31 00:15:43;;;;;;;12.93;6.65;;;;;;;10.99;66.62;101117.63;3558169;40;20057;-63
2022/05/31 00:18:09;;;;;;;10.32;6.35;;;;;;;10.91;66.58;101105.50;3559089;40;20068;-62
2022/05/31 00:20:34;;;;;;;11.52;6.85;;;;;;;10.95;66.90;101129.53;3558296;40;20065;-62
2022/05/31 00:23:00;;;;;;;9.70;6.30;;;;;;;10.88;67.15;101121.81;3557637;40;20079;-62
2022/05/31 00:25:27;;;;;;;10.15;6.35;;;;;;;10.86;67.64;101123.72;3560616;40;20045;-64
2022/05/31 00:27:52;;;;;;;7.50;6.32;;;;;;;10.81;67.12;101119.53;3558607;40;20045;-62
2022/05/31 00:30:18;;;;;;;9.18;6.22;;;;;;;10.07;67.26;101016.25;3559780;40;20068;-64
2022/05/31 00:32:49;;;;;;;8.35;6.05;;;;;;;10.71;68.04;101127.28;3557576;40;20064;-62
2022/05/31 00:35:25;;;;;;;8.73;6.22;;;;;;;10.68;68.06;101119.38;3558337;40;20371;-62
2022/05/31 00:37:54;;;;;;;11.25;5.93;;;;;;;10.64;68.42;101123.22;3558995;40;20123;-62
2022/05/31 00:40:24;;;;;;;7.72;5.60;;;;;;;10.62;68.36;101119.75;3560283;40;20061;-62
2022/05/31 00:43:02;;;;;;;8.85;6.22;;;;;;;10.51;67.49;101103.38;3558821;40;20099;-62
2022/05/31 00:45:57;;;;;;;6.72;6.05;;;;;;;10.55;68.57;101123.75;3559905;40;20060;-62
2022/05/31 00:48:35;;;;;;;9.70;5.50;;;;;;;10.52;68.19;101134.66;3559295;40;20139;-62
2022/05/31 00:51:12;;;;;;;6.95;5.55;;;;;;;10.31;67.69;101091.94;3559019;40;20065;-61
2022/05/31 00:53:46;;;;;;;5.65;4.97;;;;;;;10.50;67.14;101121.34;3558813;40;20127;-63
2022/05/31 00:56:29;;;;;;;10.50;5.70;;;;;;;10.45;67.65;101120.72;3559281;40;20096;-61
2022/05/31 00:59:19;;;;;;;9.85;6.07;;;;;;;10.43;67.45;101128.88;3558896;40;20068;-61
2022/05/31 01:01:51;;;;;;;8.88;6.03;;;;;;;10.39;67.33;101124.59;3559133;40;20123;-63
2022/05/31 01:04:24;;;;;;;9.05;6.00;;;;;;;10.39;67.77;101126.44;3560116;40;20049;-64
2022/05/31 01:06:50;;;;;;;10.77;5.38;;;;;;;10.39;67.46;101131.81;3556540;40;20067;-61
2022/05/31 01:09:15;;;;;;;7.30;5.70;;;;;;;10.35;68.22;101123.06;3558452;40;20057;-61
2022/05/31 01:11:43;;;;;;;7.07;5.65;;;;;;;10.36;68.66;101122.09;3558931;40;20049;-61
2022/05/31 01:14:11;;;;;;;10.57;6.57;;;;;;;10.34;67.49;101120.44;3558590;40;20080;-62
2022/05/31 01:17:06;;;;;;;11.02;6.25;;;;;;;10.29;67.57;101112.66;3557024;40;20056;-63
2022/05/31 01:22:17;;;;;;;8.73;5.90;;;;;;;10.25;68.97;101112.88;3559732;40;20071;-62
2022/05/31 01:25:04;;;;;;;12.10;5.72;;;;;;;10.20;68.85;101118.50;3559560;40;20052;-62
2022/05/31 01:28:11;;;;;;;8.27;5.75;;;;;;;10.15;68.29;101105.34;3560964;40;20402;-62
2022/05/31 01:31:02;;;;;;;8.10;5.70;;;;;;;10.11;69.17;101105.56;3560347;40;20065;-62
2022/05/31 01:33:39;;;;;;;8.10;6.25;;;;;;;10.07;69.46;101101.34;3554109;40;20049;-62
2022/05/31 01:36:15;;;;;;;8.43;6.05;;;;;;;10.06;69.14;101104.97;3561916;40;20060;-61
2022/05/31 01:39:01;;;;;;;8.60;6.05;;;;;;;10.03;69.23;101099.78;3560465;40;20049;-63
2022/05/31 01:41:41;;;;;;;7.80;5.70;;;;;;;10.00;69.00;101106.19;3560960;40;20057;-62
2022/05/31 01:44:15;;;;;;;8.52;5.68;;;;;;;9.95;69.39;101106.41;3559195;40;20037;-63
2022/05/31 01:46:41;;;;;;;7.13;5.55;;;;;;;9.92;69.33;101100.34;3558286;40;20061;-63
2022/05/31 01:49:14;;;;;;;9.15;6.20;;;;;;;9.89;69.33;101101.38;3559025;40;20059;-62
2022/05/31 01:51:44;;;;;;;10.35;6.15;;;;;;;9.78;69.93;101095.75;3558736;40;20057;-63
2022/05/31 01:54:14;;;;;;;10.60;6.15;;;;;;;9.86;69.87;101108.72;3558097;40;20045;-63
2022/05/31 01:56:46;;;;;;;9.05;6.38;;;;;;;9.81;69.98;101100.94;3551157;40;20061;-62
2022/05/31 01:59:13;;;;;;;7.47;6.32;;;;;;;9.81;69.82;101103.63;3558672;40;20131;-62
2022/05/31 02:01:41;;;;;;;7.85;6.38;;;;;;;9.84;70.47;101106.16;3558382;40;20062;-63
2022/05/31 02:04:08;;;;;;;12.43;6.40;;;;;;;9.85;70.14;101107.00;3558711;40;20351;-62
2022/05/31 02:06:39;;;;;;;8.40;6.50;;;;;;;9.84;70.63;101100.78;3560762;40;20398;-62
2022/05/31 02:09:09;;;;;;;12.18;6.55;;;;;;;9.88;70.25;101102.34;3557819;40;20061;-63
2022/05/31 02:11:38;;;;;;;10.70;6.63;;;;;;;9.92;69.27;101103.91;3558359;40;20328;-62
2022/05/31 02:14:07;;;;;;;8.13;6.70;;;;;;;9.86;69.96;101082.75;3559137;40;20055;-63
2022/05/31 02:16:33;;;;;;;7.70;6.00;;;;;;;10.00;69.15;101093.63;3559467;40;20065;-62
2022/05/31 02:21:43;;;;;;;9.07;6.82;;;;;;;10.09;69.23;101088.69;3558121;40;20055;-63
2022/05/31 02:24:14;;;;;;;9.02;6.82;;;;;;;10.15;69.33;101094.59;3559614;40;20072;-62
2022/05/31 02:26:43;;;;;;;10.93;7.38;;;;;;;10.19;69.86;101093.47;3556881;40;20045;-62
2022/05/31 02:29:17;;;;;;;9.02;7.00;;;;;;;10.10;70.75;101074.31;3557645;40;20598;-62
2022/05/31 02:31:44;;;;;;;10.52;7.30;;;;;;;10.21;70.29;101087.97;3558011;40;20426;-63
2022/05/31 02:34:13;;;;;;;9.88;7.47;;;;;;;10.24;70.18;101087.81;3558388;40;20104;-62
2022/05/31 02:36:38;;;;;;;9.45;6.97;;;;;;;10.31;70.23;101083.88;3556867;40;20061;-62
2022/05/31 02:39:06;;;;;;;9.40;6.65;;;;;;;10.15;70.30;101050.75;3558207;40;20053;-62
2022/05/31 02:41:32;;;;;;;9.90;6.45;;;;;;;10.42;69.78;101080.56;3559318;40;20056;-62
2022/05/31 02:43:59;;;;;;;7.57;6.40;;;;;;;10.19;69.10;101041.56;3558741;40;20067;-62
2022/05/31 02:46:25;;;;;;;9.15;6.50;;;;;;;10.52;69.14;101078.22;3559348;40;20095;-62
2022/05/31 02:48:52;;;;;;;11.60;7.00;;;;;;;10.55;67.75;101083.44;3559780;40;20143;-62
2022/05/31 02:51:18;;;;;;;8.30;6.43;;;;;;;10.59;67.63;101079.59;3560001;40;20053;-62
2022/05/31 02:53:44;;;;;;;9.75;6.05;;;;;;;10.52;67.74;101070.16;3560391;40;20061;-62
2022/05/31 02:56:10;;;;;;;8.05;5.97;;;;;;;10.59;67.82;101080.50;3559903;40;20349;-62
2022/05/31 02:58:36;;;;;;;8.93;6.18;;;;;;;10.64;67.13;101085.59;3560253;40;20057;-63
2022/05/31 03:01:18;;;;;;;9.63;5.90;;;;;;;10.62;68.15;101068.66;3559532;40;20061;-62
2022/05/31 03:03:44;;;;;;;9.98;5.85;;;;;;;10.68;67.50;101081.75;3562884;40;20065;-62
2022/05/31 03:06:09;;;;;;;8.43;5.82;;;;;;;10.71;67.49;101076.19;3561290;40;20228;-63
2022/05/31 03:08:35;;;;;;;8.40;6.03;;;;;;;10.65;68.32;101073.88;3563042;40;20130;-63
2022/05/31 03:11:04;;;;;;;8.57;5.78;;;;;;;10.73;67.84;101073.44;3561578;40;20053;-62
2022/05/31 03:13:30;;;;;;;8.75;5.88;;;;;;;10.74;67.04;101069.78;3561073;40;20072;-62
2022/05/31 03:16:01;;;;;;;8.77;5.78;;;;;;;10.76;66.21;101084.88;3561222;40;20068;-63
2022/05/31 03:18:37;;;;;;;6.30;5.65;;;;;;;10.77;67.68;101077.66;3560352;40;20420;-62
2022/05/31 03:21:16;;;;;;;10.85;5.93;;;;;;;10.72;66.86;101053.75;3561479;40;20144;-62
2022/05/31 03:23:49;;;;;;;7.68;5.38;;;;;;;10.85;66.24;101070.03;3560540;40;20388;-62
2022/05/31 03:26:20;;;;;;;8.63;5.78;;;;;;;10.76;65.73;101047.22;3560386;40;20057;-62
2022/05/31 03:28:46;;;;;;;8.60;5.45;;;;;;;10.89;65.59;101069.75;3561979;40;20281;-63
2022/05/31 03:31:13;;;;;;;7.55;5.80;;;;;;;10.90;66.27;101071.47;3562194;40;20383;-62
2022/05/31 03:33:38;;;;;;;9.73;5.43;;;;;;;10.92;65.54;101066.00;3559592;40;20061;-62
2022/05/31 03:36:04;;;;;;;7.40;5.70;;;;;;;10.92;65.89;101074.94;3559271;40;20100;-62
2022/05/31 03:38:30;;;;;;;7.45;6.22;;;;;;;10.89;66.26;101058.97;3561329;40;20053;-62
2022/05/31 03:40:56;;;;;;;10.57;5.55;;;;;;;10.95;65.86;101067.66;3559344;40;20061;-63
2022/05/31 03:43:24;;;;;;;9.05;5.63;;;;;;;10.97;65.18;101063.91;3560712;40;20053;-62
2022/05/31 03:45:49;;;;;;;9.75;5.60;;;;;;;10.99;65.92;101066.50;3560546;40;20053;-63
2022/05/31 03:48:15;;;;;;;9.90;5.63;;;;;;;10.97;65.81;101069.28;3560491;40;20068;-63
2022/05/31 03:50:41;;;;;;;8.32;5.18;;;;;;;10.98;64.93;101065.66;3562614;40;20077;-62
2022/05/31 03:53:13;;;;;;;10.07;5.43;;;;;;;11.01;65.13;101060.09;3562976;40;20303;-62
2022/05/31 03:55:42;;;;;;;6.82;5.65;;;;;;;11.00;65.50;101062.84;3562108;40;20065;-62
2022/05/31 03:58:09;;;;;;;8.32;5.93;;;;;;;11.01;65.32;101069.97;3560303;40;20055;-63
2022/05/31 04:00:35;;;;;;;7.35;5.72;;;;;;;11.04;65.92;101067.13;3561212;40;20123;-63
2022/05/31 04:03:01;;;;;;;7.82;5.30;;;;;;;10.93;65.28;101039.00;3562145;40;20061;-62
2022/05/31 04:05:27;;;;;;;8.65;5.57;;;;;;;11.07;64.84;101061.56;3560306;40;20142;-62
2022/05/31 04:07:55;;;;;;;8.15;5.82;;;;;;;11.08;64.65;101064.13;3559847;40;20064;-62
2022/05/31 04:10:21;;;;;;;9.50;6.05;;;;;;;11.08;65.38;101052.50;3561454;40;20554;-62
2022/05/31 04:12:48;;;;;;;8.27;6.10;;;;;;;10.92;65.28;101025.66;3559042;40;20440;-63
2022/05/31 04:15:14;;;;;;;8.13;6.00;;;;;;;11.20;66.42;101058.97;3556721;40;20166;-62
2022/05/31 04:17:39;;;;;;;12.73;6.43;;;;;;;11.22;66.84;101063.28;3560286;40;20380;-62
2022/05/31 04:20:06;;;;;;;10.50;6.57;;;;;;;11.23;66.31;101062.34;3556294;40;20069;-66
2022/05/31 04:22:33;;;;;;;12.55;6.40;;;;;;;11.23;66.30;101059.66;3556816;40;20063;-65
2022/05/31 04:25:01;;;;;;;8.77;6.03;;;;;;;11.17;66.80;101051.09;3561942;40;20049;-65
2022/05/31 04:27:28;;;;;;;10.60;6.32;;;;;;;11.27;67.70;101061.19;3559212;40;20491;-66
2022/05/31 04:29:54;;;;;;;8.90;6.60;;;;;;;11.30;67.69;101057.47;3558943;40;20060;-66
2022/05/31 04:32:21;;;;;;;8.27;6.40;;;;;;;11.33;67.81;101068.91;3562440;40;20064;-66
2022/05/31 04:34:47;;;;;;;8.07;6.40;;;;;;;11.35;66.90;101061.59;3560716;40;20458;-65
2022/05/31 04:37:14;;;;;;;8.88;6.88;;;;;;;11.38;67.35;101064.09;3560874;40;20069;-65
2022/05/31 04:39:40;;;;;;;8.23;7.13;;;;;;;11.41;67.41;101060.34;3562021;40;20133;-66
2022/05/31 04:42:08;;;;;;;11.38;7.25;;;;;;;11.34;67.09;101043.69;3561158;40;20123;-67
2022/05/31 04:44:34;;;;;;;14.02;6.90;;;;;;;11.46;67.14;101068.16;3559955;40;20049;-66
2022/05/31 04:47:00;;;;;;;14.05;7.00;;;;;;;11.47;67.69;101057.28;3559291;40;20068;-63
2022/05/31 04:49:25;;;;;;;9.60;6.90;;;;;;;11.18;66.55;101009.75;3562029;40;20055;-64
2022/05/31 04:51:51;;;;;;;11.13;7.50;;;;;;;11.49;66.53;101058.06;3556261;40;20050;-64
2022/05/31 04:54:17;;;;;;;14.50;7.47;;;;;;;11.50;67.12;101058.91;3559654;40;20843;-66
2022/05/31 04:56:43;;;;;;;10.77;7.50;;;;;;;11.51;66.44;101060.63;3562367;40;20384;-67
2022/05/31 04:59:10;;;;;;;10.90;7.15;;;;;;;11.48;67.26;101050.94;3559423;40;20069;-66
2022/05/31 05:01:38;;;;;;;11.52;7.20;;;;;;;11.23;65.57;101016.59;3558482;40;20060;-65
2022/05/31 05:04:05;;;;;;;15.40;7.22;;;;;;;11.49;66.67;101058.06;3557819;40;20060;-66
2022/05/31 05:06:31;;;;;;;13.20;7.65;;;;;;;11.42;66.50;101040.56;3560183;40;20080;-66
2022/05/31 05:08:57;;;;;;;14.57;8.25;;;;;;;11.53;66.21;101059.59;3558026;40;20060;-63
2022/05/31 05:11:24;;;;;;;14.30;8.82;;;;;;;11.58;66.07;101052.09;3559225;40;21703;-66
2022/05/31 05:13:54;;;;;;;16.48;8.20;;;;;;;11.61;66.74;101048.34;3561722;40;20050;-65
2022/05/31 05:16:20;;;;;;;14.80;8.73;;;;;;;11.68;66.60;101049.69;3557961;40;20345;-65
2022/05/31 05:18:45;;;;;;;17.75;9.07;;;;;;;11.65;66.85;101031.03;3558006;40;20065;-65
2022/05/31 05:21:15;;;;;;;12.27;8.13;;;;;;;11.76;66.33;101039.28;3559764;40;20068;-67
2022/05/31 05:23:41;;;;;;;15.35;8.23;;;;;;;11.78;66.96;101047.28;3558558;40;20835;-66
2022/05/31 05:26:08;;;;;;;13.77;8.20;;;;;;;11.78;66.37;101042.75;3558044;40;20052;-64
2022/05/31 05:31:40;;;;;;;14.82;8.48;;;;;;;11.89;66.27;101044.78;3557463;40;20056;-64
2022/05/31 05:34:07;;;;;;;12.25;8.98;;;;;;;11.93;65.79;101046.34;3556931;40;20356;-64
2022/05/31 05:36:33;;;;;;;13.80;8.60;;;;;;;11.76;65.57;101004.28;3553253;40;20050;-63
2022/05/31 05:38:59;;;;;;;11.70;8.38;;;;;;;12.04;65.52;101051.03;3549659;40;20063;-63
2022/05/31 05:41:30;;;;;;;13.63;8.85;;;;;;;11.99;66.78;101020.84;3557586;40;20624;-65
2022/05/31 05:43:56;;;;;;;12.13;8.73;;;;;;;12.14;65.76;101040.53;3557036;40;20052;-65
2022/05/31 05:46:26;;;;;;;15.43;8.93;;;;;;;12.19;66.02;101041.97;3558822;40;20053;-64
2022/05/31 05:48:53;;;;;;;13.82;9.05;;;;;;;12.24;65.95;101039.84;3560384;40;20059;-67
2022/05/31 05:51:31;;;;;;;12.27;8.95;;;;;;;12.24;66.57;101045.22;3560736;40;20052;-66
2022/05/31 05:53:57;;;;;;;12.30;9.27;;;;;;;12.01;65.48;101008.13;3557007;40;20058;-67
2022/05/31 05:56:25;;;;;;;13.43;9.13;;;;;;;12.34;66.17;101050.00;3556709;40;20087;-66
2022/05/31 05:58:51;;;;;;;18.13;10.73;;;;;;;12.37;65.61;101047.09;3559163;40;20069;-66
2022/05/31 06:01:45;;;;;;;13.60;9.85;;;;;;;12.39;66.02;101042.47;3558764;40;20095;-65
2022/05/31 06:04:28;;;;;;;;;;;;;;;12.37;65.64;101042.59;3556334;40;20124;-66
2022/05/31 06:07:13;;;;;;;13.23;9.52;;;;;;;12.37;65.27;101039.00;3560527;40;20250;-66
2022/05/31 06:09:50;;;;;;;13.23;9.40;;;;;;;12.44;66.07;101045.75;3552038;40;20089;-64
2022/05/31 06:12:25;;;;;;;12.65;9.57;;;;;;;12.51;65.71;101037.13;3556184;40;20065;-67
2022/05/31 06:15:11;;;;;;;14.73;9.80;;;;;;;12.59;65.66;101039.34;3558025;40;20083;-68
2022/05/31 06:17:44;;;;;;;13.15;10.02;;;;;;;12.77;64.75;101037.22;3558455;40;20495;-67
2022/05/31 06:20:11;;;;;;;13.48;9.77;;;;;;;12.91;64.64;101036.31;3555999;40;20049;-67
2022/05/31 06:22:41;;;;;;;14.40;10.02;;;;;;;12.99;65.02;101033.91;3557981;40;20099;-65
2022/05/31 06:25:12;;;;;;;18.38;9.98;;;;;;;13.09;64.55;101043.09;3556731;40;20128;-66
2022/05/31 06:27:37;;;;;;;13.27;9.82;;;;;;;13.24;64.88;101047.47;3556996;40;20389;-64
2022/05/31 06:30:04;;;;;;;14.27;9.55;;;;;;;13.44;64.61;101042.53;3559172;40;20057;-66
2022/05/31 06:32:30;;;;;;;15.57;8.77;;;;;;;13.64;62.11;101033.88;3558579;40;20359;-63
2022/05/31 06:34:56;;;;;;;17.17;9.73;;;;;;;13.92;62.38;101048.09;3560643;40;20077;-64
2022/05/31 06:37:22;;;;;;;13.43;9.32;;;;;;;14.08;60.75;101048.72;3559548;40;20466;-63
2022/05/31 06:39:48;;;;;;;13.75;9.23;;;;;;;14.14;59.07;101056.41;3561575;40;20049;-64
2022/05/31 06:42:13;;;;;;;10.82;9.32;;;;;;;14.21;60.12;101042.41;3560441;40;20063;-63
2022/05/31 06:44:43;;;;;;;11.85;9.15;;;;;;;14.14;58.51;101032.06;3561321;40;20120;-66
2022/05/31 06:47:11;;;;;;;14.45;9.27;;;;;;;14.36;58.47;101052.94;3560780;40;20064;-66
2022/05/31 06:49:38;;;;;;;13.38;9.65;;;;;;;14.51;57.68;101060.94;3553053;40;20119;-65
2022/05/31 06:57:44;;;;;;;14.40;8.50;;;;;;;14.55;56.10;101035.38;3561400;40;20186;-63
2022/05/31 07:00:15;;;;;;;15.95;8.50;;;;;;;14.84;56.42;101046.69;3561825;40;20061;-63
2022/05/31 07:02:41;;;;;;;13.20;7.43;;;;;;;15.05;55.85;101049.63;3562528;40;20077;-66
2022/05/31 07:05:10;;;;;;;10.15;7.50;;;;;;;15.12;54.39;101050.84;3561329;40;20080;-65
2022/05/31 07:07:36;;;;;;;11.70;8.07;;;;;;;15.37;54.46;101044.41;3561830;40;20393;-65
2022/05/31 07:10:03;;;;;;;18.15;11.57;;;;;;;15.63;53.51;101053.16;3560932;40;20132;-66
2022/05/31 07:12:30;;;;;;;12.35;8.75;;;;;;;15.73;52.87;101020.81;3561280;40;20055;-65
2022/05/31 07:14:55;;;;;;;8.32;7.35;;;;;;;15.93;51.37;101046.31;3559890;40;20050;-67
2022/05/31 07:17:21;;;;;;;9.07;6.80;;;;;;;16.15;51.33;101050.88;3560896;40;20045;-66
2022/05/31 07:19:46;;;;;;;9.38;7.20;;;;;;;16.23;50.91;101045.66;3561360;40;20050;-66
2022/05/31 07:22:12;;;;;;;8.18;6.65;;;;;;;16.34;51.06;101025.81;3561608;40;20366;-65
2022/05/31 07:24:38;;;;;;;8.55;6.53;;;;;;;16.64;51.00;101033.22;3563089;40;20053;-66
2022/05/31 07:27:03;;;;;;;8.00;5.53;;;;;;;16.87;50.37;101042.16;3559749;40;20056;-66
2022/05/31 07:29:29;;;;;;;10.52;5.80;;;;;;;16.83;47.59;101046.13;3560052;40;20277;-66
2022/05/31 07:31:55;;;;;;;8.63;5.63;;;;;;;16.65;48.52;101022.25;3559729;40;20057;-66
2022/05/31 07:34:23;;;;;;;6.35;5.32;;;;;;;16.75;48.44;101048.63;3559402;40;20055;-63
2022/05/31 07:36:49;;;;;;;7.72;5.60;;;;;;;16.80;48.21;101035.53;3561821;40;20380;-62
2022/05/31 07:39:19;;;;;;;10.65;5.40;;;;;;;16.98;48.99;101035.84;3561516;40;20422;-65
2022/05/31 07:41:46;;;;;;;14.75;5.57;;;;;;;17.14;48.03;101044.38;3558822;40;20069;-65
2022/05/31 07:44:14;;;;;;;8.90;4.97;;;;;;;17.20;48.30;101033.00;3564502;40;20061;-68
2022/05/31 07:46:40;;;;;;;5.95;4.85;;;;;;;17.46;48.32;101032.56;3563023;40;20389;-64
2022/05/31 07:49:06;;;;;;;11.13;5.32;;;;;;;17.72;48.14;101016.66;3559365;40;20096;-63
2022/05/31 07:51:32;;;;;;;8.68;5.28;;;;;;;18.02;46.51;101037.59;3561023;40;20061;-64
2022/05/31 07:53:58;;;;;;;9.52;5.15;;;;;;;18.04;46.64;101011.09;3559045;40;20042;-63
2022/05/31 07:56:26;;;;;;;7.38;4.68;;;;;;;18.38;46.75;101021.63;3560684;40;20079;-66
2022/05/31 07:58:52;;;;;;;7.55;5.55;;;;;;;18.32;45.68;101015.75;3560177;40;20135;-66
2022/05/31 08:01:22;;;;;;;11.05;7.40;;;;;;;18.30;45.59;101023.22;3559737;40;20057;-64
2022/05/31 08:03:49;;;;;;;79.47;55.53;;;;;;;18.27;46.04;101012.59;3559817;40;20063;-64
2022/05/31 08:06:22;;;;;;;5.57;4.95;;;;;;;18.49;45.26;101022.38;3559680;40;20119;-64
2022/05/31 08:08:49;;;;;;;8.40;5.30;;;;;;;18.60;45.54;101024.09;3558709;40;20066;-64
2022/05/31 08:11:29;;;;;;;9.55;5.43;;;;;;;18.72;46.24;101025.72;3557887;40;20415;-63
2022/05/31 08:13:56;;;;;;;6.70;4.68;;;;;;;18.98;45.01;101019.69;3560001;40;20060;-64
2022/05/31 08:16:26;;;;;;;6.25;4.97;;;;;;;19.17;45.30;101016.09;3559104;40;20049;-65
2022/05/31 08:18:55;;;;;;;10.98;5.85;;;;;;;19.24;44.44;101007.16;3558750;40;20065;-64
2022/05/31 08:21:28;;;;;;;6.30;5.28;;;;;;;19.48;44.79;101008.56;3560370;40;20079;-64
2022/05/31 08:24:05;;;;;;;6.28;5.10;;;;;;;19.71;42.42;100999.03;3560636;40;20066;-65
2022/05/31 08:26:30;;;;;;;7.90;5.50;;;;;;;19.58;42.92;101003.91;3559132;40;20049;-64
2022/05/31 08:28:56;;;;;;;7.25;5.15;;;;;;;19.67;44.36;101008.50;3551517;40;20052;-64
2022/05/31 08:31:31;;;;;;;8.23;5.65;;;;;;;19.57;42.98;101013.13;3558106;40;20502;-65
2022/05/31 08:33:58;;;;;;;9.82;7.22;;;;;;;19.52;43.11;101003.66;3552247;40;20340;-64
2022/05/31 08:36:23;;;;;;;8.82;5.78;;;;;;;19.84;43.35;101019.66;3559415;40;20059;-64
2022/05/31 08:38:49;;;;;;;8.40;5.40;;;;;;;19.93;42.98;101008.69;3559047;40;20076;-64
2022/05/31 08:41:27;;;;;;;6.57;5.35;;;;;;;20.09;42.93;101008.03;3561808;40;20061;-65
2022/05/31 08:43:58;;;;;;;7.63;4.60;;;;;;;20.38;41.24;101017.91;3558478;40;20046;-62
2022/05/31 08:47:05;;;;;;;6.32;4.63;;;;;;;20.60;41.68;101006.56;3559175;40;20056;-64
2022/05/31 08:53:14;;;;;;;6.60;5.15;;;;;;;21.03;42.25;101007.63;3558076;40;20067;-65
2022/05/31 08:59:00;;;;;;;8.50;4.35;;;;;;;21.67;38.18;101005.53;3558000;40;20123;-63
2022/05/31 09:01:34;;;;;;;6.15;3.95;;;;;;;21.51;39.58;101006.31;3560133;40;20057;-63
2022/05/31 09:04:22;;;;;;;6.18;5.07;;;;;;;21.53;39.68;100993.31;3560923;40;20058;-63
2022/05/31 09:07:05;;;;;;;5.68;4.55;;;;;;;21.73;38.92;101009.50;3561047;40;20061;-65
2022/05/31 09:09:43;;;;;;;6.07;4.80;;;;;;;21.75;37.84;101010.19;3560236;40;20056;-65
2022/05/31 09:12:22;;;;;;;6.80;5.20;;;;;;;21.33;38.19;101008.19;3559883;40;20068;-64
2022/05/31 09:15:09;;;;;;;5.82;4.80;;;;;;;21.08;39.10;101005.28;3560910;40;20358;-65
2022/05/31 09:18:26;;;;;;;14.68;10.85;;;;;;;21.35;41.20;101002.59;3560174;40;20345;-65
2022/05/31 09:21:01;;;;;;;5.50;4.25;;;;;;;21.67;40.31;101001.94;3561865;40;20105;-64
2022/05/31 09:23:35;;;;;;;5.30;4.30;;;;;;;21.78;39.85;101004.38;3562398;40;20100;-65
2022/05/31 09:26:42;;;;;;;5.88;5.00;;;;;;;21.76;38.84;101003.72;3560134;40;20522;-63
2022/05/31 09:29:25;;;;;;;5.70;5.10;;;;;;;22.05;37.94;100997.84;3561453;40;20061;-65
2022/05/31 09:32:17;;;;;;;6.65;4.60;;;;;;;22.12;38.30;101000.78;3558727;40;20390;-65
2022/05/31 09:35:41;;;;;;;10.00;5.15;;;;;;;22.28;37.41;101002.72;3560914;40;20061;-66
2022/05/31 09:38:28;;;;;;;7.93;5.25;;;;;;;22.50;38.12;101001.25;3560958;40;20069;-64
2022/05/31 09:41:15;;;;;;;5.97;4.30;;;;;;;22.80;37.42;100997.84;3563127;40;20061;-65
2022/05/31 09:43:55;;;;;;;6.28;4.78;;;;;;;22.69;36.55;100976.28;3561989;40;20072;-65
2022/05/31 09:46:42;;;;;;;5.78;4.13;;;;;;;22.94;37.44;100999.94;3559605;40;20049;-65
2022/05/31 09:49:39;;;;;;;4.18;3.47;;;;;;;22.88;35.59;100995.13;3551852;40;20097;-65
2022/05/31 09:52:45;;;;;;;8.27;4.30;;;;;;;22.21;37.96;100986.13;3552192;40;20049;-65
2022/05/31 09:58:38;;;;;;;5.72;4.53;;;;;;;21.30;38.80;100994.84;3552033;40;20485;-64
2022/05/31 10:01:29;;;;;;;6.97;5.00;;;;;;;21.41;37.70;100997.34;3549614;40;20056;-65
2022/05/31 10:04:08;;;;;;;6.90;4.50;;;;;;;21.78;39.34;100985.22;3543375;40;20334;-66
2022/05/31 10:06:51;;;;;;;5.45;4.25;;;;;;;22.15;39.31;100984.00;3550923;40;20075;-65
2022/05/31 10:09:19;;;;;;;9.48;7.25;;;;;;;22.22;38.21;100985.09;3551864;40;20069;-66
2022/05/31 10:11:45;;;;;;;5.30;4.70;;;;;;;22.07;37.87;100983.97;3550712;40;20061;-65
2022/05/31 10:14:34;;;;;;;7.68;4.47;;;;;;;22.26;37.58;100989.19;3551663;40;20076;-64
2022/05/31 10:17:36;;;;;;;6.32;5.25;;;;;;;21.80;37.93;100977.72;3550281;40;20085;-63
2022/05/31 10:20:24;;;;;;;6.15;5.07;;;;;;;21.45;39.52;100974.13;3551445;40;20061;-65
2022/05/31 10:22:58;;;;;;;8.18;5.60;;;;;;;21.17;39.95;100983.47;3550875;40;20075;-63
2022/05/31 10:25:44;;;;;;;7.28;5.82;;;;;;;20.98;40.87;100993.59;3551023;40;20400;-63
2022/05/31 10:28:39;;;;;;;8.38;5.20;;;;;;;20.58;40.31;100978.56;3552057;40;20067;-64
2022/05/31 10:31:28;;;;;;;6.53;5.20;;;;;;;20.15;40.83;100980.13;3551466;40;20090;-63
2022/05/31 10:33:58;;;;;;;7.72;5.32;;;;;;;20.04;43.34;100976.72;3549791;40;20081;-63
2022/05/31 10:36:32;;;;;;;9.57;5.25;;;;;;;19.92;42.45;100984.28;3550187;40;20332;-62
2022/05/31 10:39:11;;;;;;;8.05;5.15;;;;;;;19.88;42.91;100977.41;3551536;40;20127;-63
2022/05/31 10:41:39;;;;;;;7.00;5.47;;;;;;;19.83;43.24;100971.56;3550414;40;20151;-64
2022/05/31 10:44:28;;;;;;;5.97;4.90;;;;;;;19.41;43.24;100925.63;3549638;40;20053;-64
2022/05/31 10:47:07;;;;;;;9.05;4.53;;;;;;;19.70;43.81;100970.03;3552015;40;20053;-63
2022/05/31 10:49:34;;;;;;;5.72;4.63;;;;;;;19.36;43.20;100933.41;3541467;40;20084;-63
2022/05/31 10:52:23;;;;;;;6.13;5.20;;;;;;;19.49;43.20;100975.66;3550127;40;20061;-63
2022/05/31 10:55:25;;;;;;;8.32;5.07;;;;;;;19.37;44.32;100978.72;3550147;40;20159;-63
2022/05/31 10:58:09;;;;;;;6.35;4.97;;;;;;;19.28;43.22;100988.66;3551231;40;20045;-63
2022/05/31 11:00:50;;;;;;;6.30;5.40;;;;;;;19.08;42.78;100986.97;3549808;40;20323;-64
2022/05/31 11:03:37;;;;;;;8.75;4.50;;;;;;;18.94;45.80;100982.84;3551159;40;20064;-63
2022/05/31 11:06:22;;;;;;;6.93;4.70;;;;;;;18.92;45.89;100980.25;3550625;40;20073;-64
2022/05/31 11:13:02;;;;;;;6.15;4.90;;;;;;;18.92;46.17;100984.84;3549536;40;20060;-63
2022/05/31 11:15:54;;;;;;;6.63;4.72;;;;;;;18.96;46.27;100981.69;3549377;40;20055;-63
2022/05/31 11:18:47;;;;;;;4.88;4.38;;;;;;;19.00;46.52;100983.13;3549669;40;20060;-63
2022/05/31 11:21:57;;;;;;;6.30;5.05;;;;;;;18.95;44.25;100976.38;3550867;40;20403;-63
2022/05/31 11:24:41;;;;;;;6.65;4.63;;;;;;;19.01;44.69;100992.16;3551110;40;20053;-62
2022/05/31 11:27:33;;;;;;;4.80;4.30;;;;;;;18.96;44.48;100994.44;3552173;40;20055;-62
2022/05/31 11:30:21;;;;;;;7.68;4.72;;;;;;;19.02;45.60;100988.41;3552780;40;20061;-63
2022/05/31 11:33:28;;;;;;;7.63;4.70;;;;;;;19.24;45.96;100990.81;3551098;40;20073;-63
2022/05/31 11:36:42;;;;;;;8.40;5.05;;;;;;;19.57;45.09;100983.13;3552259;40;20042;-65
2022/05/31 11:39:30;;;;;;;4.75;4.10;;;;;;;19.89;40.98;100982.72;3544165;40;20139;-64
2022/05/31 11:42:07;;;;;;;4.88;4.07;;;;;;;20.95;41.50;100988.44;3550816;40;20408;-64
2022/05/31 11:44:48;;;;;;;8.18;4.15;;;;;;;21.44;36.63;100980.63;3547528;40;20350;-63
2022/05/31 11:47:50;;;;;;;5.22;4.18;;;;;;;21.14;37.50;100981.06;3547504;40;20403;-64
2022/05/31 11:50:40;;;;;;;3.08;2.78;;;;;;;20.97;37.63;100991.88;3560687;40;20057;-64
2022/05/31 11:53:43;;;;;;;2.28;2.00;;;;;;;20.59;35.33;100988.47;3560559;40;20057;-63
2022/05/31 11:56:44;;;;;;;2.92;2.20;;;;;;;20.33;36.34;100987.47;3563314;40;20069;-63
2022/05/31 11:59:35;;;;;;;2.97;2.10;;;;;;;20.09;34.49;100993.53;3561978;40;20045;-64
2022/05/31 12:02:34;;;;;;;5.28;2.30;;;;;;;19.95;36.46;100992.19;3564138;40;20126;-64
2022/05/31 12:05:22;;;;;;;4.85;2.10;;;;;;;19.79;38.20;100959.22;3561431;40;20056;-63
2022/05/31 12:08:16;;;;;;;2.15;1.85;;;;;;;20.19;37.33;100994.31;3564512;40;20057;-66
2022/05/31 12:10:54;;;;;;;3.20;2.38;;;;;;;20.27;35.40;100980.78;3564681;40;20053;-63
2022/05/31 12:13:22;;;;;;;3.03;2.22;;;;;;;20.53;33.82;100986.34;3563121;40;20093;-63
2022/05/31 12:15:54;;;;;;;3.40;2.50;;;;;;;20.53;34.21;100980.03;3560427;40;20097;-65
2022/05/31 12:18:37;;;;;;;2.70;2.50;;;;;;;20.79;33.43;100983.69;3559439;40;20065;-65
2022/05/31 12:21:29;;;;;;;3.60;2.22;;;;;;;21.22;34.01;100983.88;3560551;40;20101;-65